Time;durP1;ratioP1;P1;durP2;ratioP2;P2;SDS_P1;SDS_P2;PMS_P1;PMS_P2;Temp;Humidity;BMP_temperature;BMP_pressure;BME280_temperature;BME280_humidity;BME280_pressure;Samples;Min_cycle;Max_cycle;Signal;HPM_P1;HPM_P2
2023/02/07 00:00:34;;;;;;;56.13;10.27;;;;;;;1.73;100.00;103999.50;5030502;28;20033;-43
2023/02/07 00:02:59;;;;;;;49.35;10.57;;;;;;;1.70;100.00;103986.31;5024237;28;20040;-43
2023/02/07 00:05:24;;;;;;;45.83;10.07;;;;;;;1.66;100.00;103989.09;5028991;28;20025;-42
2023/02/07 00:07:50;;;;;;;52.90;10.32;;;;;;;1.62;100.00;103982.16;5025251;28;20072;-42
2023/02/07 00:10:15;;;;;;;40.10;9.80;;;;;;;1.59;100.00;103982.25;5021994;28;20026;-42
2023/02/07 00:12:41;;;;;;;52.88;10.20;;;;;;;1.58;100.00;103975.19;5020027;28;20523;-43
2023/02/07 00:15:06;;;;;;;53.95;11.68;;;;;;;1.53;100.00;103970.03;5017142;28;20127;-44
2023/02/07 00:17:32;;;;;;;51.78;9.80;;;;;;;1.56;100.00;103977.91;5016314;28;20060;-43
2023/02/07 00:19:57;;;;;;;47.63;10.70;;;;;;;1.56;100.00;103974.41;5028114;28;20034;-44
2023/02/07 00:22:23;;;;;;;40.30;10.93;;;;;;;1.57;100.00;103968.16;5027981;28;20049;-44
2023/02/07 00:24:48;;;;;;;50.17;11.00;;;;;;;1.58;100.00;103972.53;5020582;28;20037;-43
2023/02/07 00:27:13;;;;;;;46.25;10.10;;;;;;;1.55;100.00;103970.84;5012080;28;20030;-44
2023/02/07 00:29:39;;;;;;;46.55;10.70;;;;;;;1.54;100.00;103962.00;5014162;28;20143;-44
2023/02/07 00:32:04;;;;;;;56.95;11.32;;;;;;;1.56;100.00;103972.59;5027989;28;20053;-43
2023/02/07 00:34:30;;;;;;;32.30;10.20;;;;;;;1.56;100.00;103966.44;5046114;28;20025;-43
2023/02/07 00:36:56;;;;;;;46.25;10.93;;;;;;;1.53;100.00;103965.59;5020940;28;20022;-43
2023/02/07 00:39:21;;;;;;;46.35;10.52;;;;;;;1.48;100.00;103961.34;5011643;28;20033;-43
2023/02/07 00:41:47;;;;;;;44.53;11.80;;;;;;;1.43;100.00;103960.63;5012088;28;20385;-44
2023/02/07 00:44:12;;;;;;;39.22;10.60;;;;;;;1.41;100.00;103957.13;5019147;28;20025;-44
2023/02/07 00:46:38;;;;;;;50.67;11.23;;;;;;;1.42;100.00;103965.06;5031470;28;20108;-43
2023/02/07 00:49:04;;;;;;;42.13;11.32;;;;;;;1.35;100.00;103968.81;5024508;28;20013;-45
2023/02/07 00:51:30;;;;;;;44.72;11.25;;;;;;;1.31;100.00;103968.00;5030266;28;20532;-42
2023/02/07 00:53:56;;;;;;;47.47;10.77;;;;;;;1.29;100.00;103961.00;5031431;28;20148;-43
2023/02/07 00:56:23;;;;;;;35.45;10.30;;;;;;;1.25;100.00;103962.88;5025763;28;20033;-43
2023/02/07 00:58:48;;;;;;;39.40;10.27;;;;;;;1.23;100.00;103963.84;5014800;28;20511;-43
2023/02/07 01:01:14;;;;;;;48.13;11.63;;;;;;;1.22;100.00;103957.66;5011369;28;20034;-43
2023/02/07 01:03:40;;;;;;;38.35;11.07;;;;;;;1.19;100.00;103951.59;5024715;28;20112;-43
2023/02/07 01:06:06;;;;;;;45.67;10.43;;;;;;;1.20;100.00;103948.00;5029467;28;20025;-43
2023/02/07 01:08:31;;;;;;;42.83;11.70;;;;;;;1.19;100.00;103949.81;5029435;28;20396;-42
2023/02/07 01:11:01;;;;;;;39.33;11.60;;;;;;;1.23;100.00;103950.56;5024357;28;20022;-42
2023/02/07 01:13:26;;;;;;;51.92;11.00;;;;;;;1.27;100.00;103960.19;5010163;28;20037;-43
2023/02/07 01:15:51;;;;;;;41.05;11.00;;;;;;;1.30;100.00;103960.97;5011741;28;20034;-44
2023/02/07 01:18:17;;;;;;;33.70;11.10;;;;;;;1.31;100.00;103960.03;5029564;28;20033;-43
2023/02/07 01:20:42;;;;;;;41.83;11.52;;;;;;;1.29;100.00;103955.69;5022124;28;20026;-43
2023/02/07 01:23:09;;;;;;;40.10;11.13;;;;;;;1.24;100.00;103953.19;5026547;28;20116;-43
2023/02/07 01:25:34;;;;;;;33.97;11.07;;;;;;;1.25;100.00;103962.03;5029717;28;20507;-43
2023/02/07 01:28:00;;;;;;;54.60;10.95;;;;;;;1.18;100.00;103963.97;5013969;28;20037;-42
2023/02/07 01:30:25;;;;;;;41.50;10.90;;;;;;;1.05;100.00;103959.91;5016662;28;20025;-44
2023/02/07 01:32:51;;;;;;;46.65;11.18;;;;;;;0.97;100.00;103960.13;5024738;28;20049;-43
2023/02/07 01:35:16;;;;;;;47.28;11.48;;;;;;;0.97;100.00;103953.97;5020581;28;20115;-43
2023/02/07 01:37:41;;;;;;;48.05;12.70;;;;;;;0.96;100.00;103961.06;5020281;28;20030;-44
2023/02/07 01:40:08;;;;;;;48.28;12.52;;;;;;;0.94;100.00;103968.19;5007324;28;20064;-44
2023/02/07 01:42:33;;;;;;;48.65;12.52;;;;;;;0.97;100.00;103968.09;5031590;28;20447;-43
2023/02/07 01:45:04;;;;;;;58.25;13.55;;;;;;;1.03;100.00;103967.94;5024087;28;20025;-43
2023/02/07 01:47:30;;;;;;;50.90;13.40;;;;;;;1.07;100.00;103968.72;5023062;28;20037;-43
2023/02/07 01:49:57;;;;;;;52.95;13.35;;;;;;;1.07;100.00;103974.88;5024950;28;20026;-43
2023/02/07 01:52:32;;;;;;;46.03;11.73;;;;;;;1.07;100.00;103969.56;5028633;28;20029;-42
2023/02/07 01:55:02;;;;;;;36.35;11.93;;;;;;;0.99;100.00;103979.53;5026648;28;20041;-43
2023/02/07 01:57:28;;;;;;;47.20;13.75;;;;;;;0.99;100.00;103976.88;5013790;28;20037;-44
2023/02/07 01:59:55;;;;;;;51.50;13.35;;;;;;;1.05;100.00;103982.03;5023988;28;20040;-44
2023/02/07 02:02:22;;;;;;;62.60;13.80;;;;;;;1.01;100.00;103975.06;5012470;28;20057;-44
2023/02/07 02:04:49;;;;;;;43.95;13.35;;;;;;;1.04;100.00;103980.28;5020019;28;20034;-44
2023/02/07 02:07:14;;;;;;;46.10;13.30;;;;;;;1.02;100.00;103984.75;5010497;28;20034;-44
2023/02/07 02:09:40;;;;;;;52.53;14.10;;;;;;;1.05;100.00;103986.44;5017902;28;20390;-43
2023/02/07 02:12:22;;;;;;;59.78;14.65;;;;;;;1.04;100.00;103990.03;5029350;28;20069;-43
2023/02/07 02:14:57;;;;;;;74.97;14.55;;;;;;;0.96;100.00;103986.72;5019496;28;20473;-43
2023/02/07 02:17:34;;;;;;;66.10;14.68;;;;;;;0.84;100.00;103985.25;5012363;28;20030;-44
2023/02/07 02:20:27;;;;;;;51.08;14.38;;;;;;;0.84;100.00;103982.59;5015746;28;20068;-42
2023/02/07 02:23:06;;;;;;;40.90;13.57;;;;;;;0.79;100.00;103988.06;5032762;28;20405;-43
2023/02/07 02:25:34;;;;;;;44.10;14.15;;;;;;;0.79;100.00;103985.41;5028214;28;20040;-43
2023/02/07 02:28:22;;;;;;;40.38;13.27;;;;;;;0.77;100.00;103978.41;5024862;28;20033;-43
2023/02/07 02:30:50;;;;;;;;;;;;;;;0.77;100.00;103973.09;5004630;28;20052;-43
2023/02/07 02:33:19;;;;;;;;;;;;;;;0.75;100.00;103981.06;5021701;28;21402;-43
2023/02/07 02:36:07;;;;;;;31.95;12.70;;;;;;;0.74;100.00;103975.78;5033069;28;19943;-43
2023/02/07 02:38:37;;;;;;;35.75;12.55;;;;;;;0.76;100.00;103987.25;5033514;28;20040;-42
2023/02/07 02:41:16;;;;;;;32.78;12.48;;;;;;;0.79;100.00;103990.69;5027546;28;20183;-42
2023/02/07 02:43:47;;;;;;;38.42;12.73;;;;;;;0.80;100.00;103987.13;5012528;28;20096;-42
2023/02/07 02:46:18;;;;;;;36.22;13.77;;;;;;;0.86;100.00;103980.78;5013858;28;20030;-42
2023/02/07 02:48:43;;;;;;;32.05;12.75;;;;;;;0.83;100.00;103981.75;5012282;28;20076;-43
2023/02/07 02:51:09;;;;;;;38.25;12.55;;;;;;;0.79;100.00;103976.53;5021369;28;20136;-43
2023/02/07 02:53:34;;;;;;;32.80;12.63;;;;;;;0.80;100.00;103975.66;5021393;28;20025;-43
2023/02/07 02:56:05;;;;;;;26.42;11.57;;;;;;;0.75;100.00;103972.25;5019067;28;20128;-43
2023/02/07 02:58:43;;;;;;;29.73;11.23;;;;;;;0.65;100.00;103969.84;5025959;28;20034;-43
2023/02/07 03:01:18;;;;;;;25.13;10.90;;;;;;;0.55;100.00;103970.13;5021087;28;20065;-43
2023/02/07 03:03:53;;;;;;;25.30;11.65;;;;;;;0.51;100.00;103956.09;5016149;28;20386;-43
2023/02/07 03:06:34;;;;;;;29.50;12.20;;;;;;;0.54;100.00;103945.41;5033509;28;20031;-43
2023/02/07 03:09:09;;;;;;;32.42;11.18;;;;;;;0.52;100.00;103957.81;5033196;28;20030;-45
2023/02/07 03:11:48;;;;;;;35.03;12.23;;;;;;;0.57;100.00;103953.25;5031394;28;20017;-44
2023/02/07 03:14:33;;;;;;;29.40;11.70;;;;;;;0.61;100.00;103943.47;5032172;28;20048;-43
2023/02/07 03:17:32;;;;;;;31.52;11.55;;;;;;;0.62;100.00;103940.75;5031511;28;20033;-44
2023/02/07 03:20:01;;;;;;;31.08;11.52;;;;;;;0.63;100.00;103936.31;4999905;28;20034;-45
2023/02/07 03:22:27;;;;;;;30.38;10.68;;;;;;;0.53;100.00;103938.38;5024186;28;20022;-42
2023/02/07 03:24:55;;;;;;;29.50;10.77;;;;;;;0.36;100.00;103943.22;5013000;28;20507;-43
2023/02/07 03:27:21;;;;;;;27.08;11.23;;;;;;;0.34;100.00;103943.28;5013718;28;20033;-44
2023/02/07 03:29:49;;;;;;;28.13;11.60;;;;;;;0.38;100.00;103946.72;5018208;28;20120;-43
2023/02/07 03:32:15;;;;;;;;;;;;;;;0.44;100.00;103943.91;5031193;28;20041;-42
2023/02/07 03:34:48;;;;;;;41.70;12.38;;;;;;;0.41;100.00;103946.63;5030655;28;19913;-42
2023/02/07 03:37:25;;;;;;;30.80;12.50;;;;;;;0.41;100.00;103942.19;5013223;28;20054;-43
2023/02/07 03:39:51;;;;;;;28.85;11.18;;;;;;;0.41;100.00;103938.69;5018639;28;20068;-44
2023/02/07 03:42:28;;;;;;;30.33;11.30;;;;;;;0.42;100.00;103932.47;5029896;28;20107;-43
2023/02/07 03:44:54;;;;;;;34.15;11.88;;;;;;;0.42;100.00;103937.75;5025939;28;20117;-43
2023/02/07 03:47:20;;;;;;;35.28;10.65;;;;;;;0.43;100.00;103942.16;5028092;28;20065;-44
2023/02/07 03:49:45;;;;;;;33.83;11.15;;;;;;;0.42;100.00;103937.75;5025559;28;20124;-43
2023/02/07 03:52:11;;;;;;;28.20;11.93;;;;;;;0.37;100.00;103939.66;5012912;28;20495;-44
2023/02/07 03:54:36;;;;;;;27.17;11.70;;;;;;;0.38;100.00;103942.28;5042598;28;20071;-44
2023/02/07 03:57:01;;;;;;;25.05;12.23;;;;;;;0.43;100.00;103947.47;5032901;28;20071;-44
2023/02/07 03:59:27;;;;;;;30.17;11.05;;;;;;;0.35;100.00;103954.75;5023823;28;20025;-43
2023/02/07 04:01:52;;;;;;;24.25;10.93;;;;;;;0.26;100.00;103944.38;5022614;28;20021;-43
2023/02/07 04:04:18;;;;;;;41.78;10.60;;;;;;;0.22;100.00;103952.41;5034362;28;20025;-42
2023/02/07 04:06:43;;;;;;;29.85;11.68;;;;;;;0.28;100.00;103950.50;5033150;28;20473;-43
2023/02/07 04:09:08;;;;;;;32.35;12.60;;;;;;;0.30;100.00;103949.56;5028425;28;20543;-43
2023/02/07 04:11:34;;;;;;;35.17;12.98;;;;;;;0.32;100.00;103942.44;5027589;28;20038;-43
2023/02/07 04:13:59;;;;;;;28.73;12.43;;;;;;;0.32;100.00;103946.88;5030960;28;20504;-42
2023/02/07 04:16:25;;;;;;;31.85;11.57;;;;;;;0.29;100.00;103939.00;5040664;28;20392;-42
2023/02/07 04:18:50;;;;;;;30.98;11.35;;;;;;;0.20;100.00;103938.31;5031520;28;20029;-43
2023/02/07 04:21:15;;;;;;;27.83;11.18;;;;;;;0.10;100.00;103942.09;5013156;28;20026;-43
2023/02/07 04:23:41;;;;;;;24.50;10.65;;;;;;;0.08;100.00;103943.03;5015639;28;20091;-42
2023/02/07 04:26:06;;;;;;;28.50;12.50;;;;;;;0.08;100.00;103943.94;5025560;28;20405;-43
2023/02/07 04:28:31;;;;;;;33.65;11.75;;;;;;;0.09;100.00;103937.72;5022044;28;20032;-42
2023/02/07 04:30:57;;;;;;;26.92;12.35;;;;;;;0.10;100.00;103942.09;5018593;28;20033;-44
2023/02/07 04:33:22;;;;;;;30.65;12.60;;;;;;;0.13;100.00;103942.03;5026745;28;20069;-43
2023/02/07 04:35:55;;;;;;;39.17;12.30;;;;;;;0.19;100.00;103951.63;5030612;28;20095;-43
2023/02/07 04:38:20;;;;;;;39.80;13.20;;;;;;;0.18;100.00;103945.41;5012765;28;20030;-43
2023/02/07 04:40:46;;;;;;;28.48;12.63;;;;;;;0.13;100.00;103942.03;5023167;28;20516;-43
2023/02/07 04:43:11;;;;;;;32.60;13.20;;;;;;;0.12;100.00;103936.78;5011970;28;20109;-43
2023/02/07 04:45:36;;;;;;;34.75;13.82;;;;;;;0.14;100.00;103949.06;5024281;28;20021;-42
2023/02/07 04:48:02;;;;;;;32.88;13.57;;;;;;;0.19;100.00;103948.97;5030605;28;20067;-43
2023/02/07 04:50:27;;;;;;;32.42;11.98;;;;;;;0.20;100.00;103945.41;5025797;28;20088;-43
2023/02/07 04:52:52;;;;;;;31.15;13.45;;;;;;;0.18;100.00;103940.13;5017234;28;20029;-43
2023/02/07 04:55:18;;;;;;;29.90;12.85;;;;;;;0.17;100.00;103941.03;5017688;28;20075;-43
2023/02/07 04:57:43;;;;;;;35.28;13.05;;;;;;;0.17;100.00;103943.69;5031036;28;20022;-43
2023/02/07 05:00:09;;;;;;;45.97;14.50;;;;;;;0.17;100.00;103938.41;5028343;28;20036;-42
2023/02/07 05:02:35;;;;;;;38.33;14.32;;;;;;;0.22;100.00;103940.94;5023038;28;20068;-43
2023/02/07 05:05:00;;;;;;;47.63;15.07;;;;;;;0.22;100.00;103938.28;5011293;28;20080;-43
2023/02/07 05:07:26;;;;;;;29.25;13.32;;;;;;;0.25;100.00;103937.34;5022390;28;20079;-44
2023/02/07 05:09:52;;;;;;;44.40;14.88;;;;;;;0.27;100.00;103924.94;5029313;28;20021;-42
2023/02/07 05:12:18;;;;;;;42.38;14.77;;;;;;;0.26;100.00;103931.97;5030591;28;20030;-43
2023/02/07 05:14:43;;;;;;;45.72;15.70;;;;;;;0.24;100.00;103936.47;5025478;28;20033;-45
2023/02/07 05:17:08;;;;;;;38.90;15.73;;;;;;;0.25;100.00;103934.69;5018955;28;20061;-44
2023/02/07 05:19:34;;;;;;;45.80;15.30;;;;;;;0.24;100.00;103938.22;5023352;28;20083;-44
2023/02/07 05:21:59;;;;;;;45.63;14.88;;;;;;;0.25;100.00;103940.84;5029744;28;20064;-43
2023/02/07 05:24:24;;;;;;;46.30;15.35;;;;;;;0.22;100.00;103951.53;5028510;28;20025;-42
2023/02/07 05:26:50;;;;;;;47.80;17.15;;;;;;;0.19;100.00;103947.19;5021780;28;20025;-43
2023/02/07 05:29:15;;;;;;;49.58;16.95;;;;;;;0.15;100.00;103942.84;5029779;28;20504;-42
2023/02/07 05:34:25;;;;;;;42.33;14.98;;;;;;;0.13;100.00;103946.44;5021148;28;20408;-44
2023/02/07 05:36:50;;;;;;;48.45;16.42;;;;;;;0.09;100.00;103945.66;5030332;28;20030;-42
2023/02/07 05:39:15;;;;;;;49.78;17.77;;;;;;;0.10;100.00;103941.22;5023461;28;20112;-43
2023/02/07 05:41:41;;;;;;;51.03;16.50;;;;;;;0.13;100.00;103943.78;5014886;28;20396;-43
2023/02/07 05:44:06;;;;;;;52.30;17.33;;;;;;;0.13;100.00;103951.75;5028080;28;20116;-43
2023/02/07 05:46:31;;;;;;;44.25;16.88;;;;;;;0.09;100.00;103961.56;5041931;28;20053;-44
2023/02/07 05:48:57;;;;;;;52.00;16.50;;;;;;;0.05;100.00;103951.94;5011179;28;20032;-43
2023/02/07 05:51:22;;;;;;;45.75;16.52;;;;;;;0.07;100.00;103946.59;5013209;28;20028;-44
2023/02/07 05:53:48;;;;;;;56.92;16.15;;;;;;;0.05;100.00;103946.63;5010590;28;20516;-45
2023/02/07 05:56:13;;;;;;;42.25;16.92;;;;;;;0.00;100.00;103948.56;5014420;28;20030;-45
2023/02/07 05:58:39;;;;;;;46.72;16.88;;;;;;;-0.01;100.00;103944.13;5028817;28;20095;-43
2023/02/07 06:01:04;;;;;;;52.65;17.75;;;;;;;-0.01;100.00;103944.13;5025725;28;20491;-43
2023/02/07 06:03:29;;;;;;;53.95;18.02;;;;;;;-0.04;100.00;103945.09;5028527;28;20377;-44
2023/02/07 06:05:55;;;;;;;49.83;16.98;;;;;;;0.04;100.00;103947.56;5028385;28;20459;-42
2023/02/07 06:08:20;;;;;;;43.63;16.38;;;;;;;0.06;100.00;103951.03;5028360;28;20030;-43
2023/02/07 06:10:48;;;;;;;44.20;16.85;;;;;;;0.04;100.00;103947.56;5013975;28;20061;-44
2023/02/07 06:13:13;;;;;;;50.67;17.80;;;;;;;-0.03;100.00;103951.25;5011849;28;20396;-44
2023/02/07 06:15:38;;;;;;;59.55;18.23;;;;;;;0.01;100.00;103950.28;5013246;28;20041;-43
2023/02/07 06:18:04;;;;;;;51.67;18.05;;;;;;;0.00;100.00;103956.50;5010724;28;20030;-45
2023/02/07 06:20:29;;;;;;;49.83;17.73;;;;;;;0.00;100.00;103961.78;5021741;28;20025;-43
2023/02/07 06:22:54;;;;;;;55.97;18.85;;;;;;;0.02;100.00;103965.25;5039408;28;20032;-43
2023/02/07 06:25:20;;;;;;;68.18;20.17;;;;;;;0.08;100.00;103974.81;5015988;28;20153;-43
2023/02/07 06:27:45;;;;;;;71.15;20.95;;;;;;;0.10;100.00;103973.88;5021433;28;20034;-41
2023/02/07 06:30:11;;;;;;;67.30;20.50;;;;;;;0.17;100.00;103975.47;5026915;28;20491;-42
2023/02/07 06:32:36;;;;;;;65.65;20.88;;;;;;;0.26;100.00;103977.03;5022817;28;20397;-44
2023/02/07 06:35:02;;;;;;;60.28;20.73;;;;;;;0.34;100.00;103982.13;5028700;28;20490;-44
2023/02/07 06:37:27;;;;;;;71.07;21.92;;;;;;;0.38;100.00;103979.38;4999110;28;20076;-43
2023/02/07 06:39:53;;;;;;;75.70;22.38;;;;;;;0.46;100.00;103975.66;5006108;28;20037;-43
2023/02/07 06:42:18;;;;;;;83.68;24.33;;;;;;;0.50;100.00;103988.81;5022694;28;20052;-42
2023/02/07 06:44:43;;;;;;;76.90;25.38;;;;;;;0.52;100.00;103981.66;5022821;28;20152;-43
2023/02/07 06:47:09;;;;;;;79.70;24.60;;;;;;;0.52;100.00;103981.66;5020594;28;20032;-42
2023/02/07 06:49:34;;;;;;;126.50;27.67;;;;;;;0.46;100.00;103988.91;5022601;28;20021;-42
2023/02/07 06:51:59;;;;;;;84.88;24.95;;;;;;;0.47;100.00;103978.25;5021951;28;20096;-43
2023/02/07 06:54:25;;;;;;;85.72;26.15;;;;;;;0.47;100.00;103980.91;5022563;28;20111;-43
2023/02/07 06:56:50;;;;;;;112.90;28.20;;;;;;;0.48;100.00;103990.63;5024669;28;20087;-43
2023/02/07 06:59:15;;;;;;;94.28;27.00;;;;;;;0.33;100.00;103991.88;5022120;28;20419;-43
2023/02/07 07:01:41;;;;;;;94.53;28.08;;;;;;;0.37;100.00;103987.34;5017790;28;20406;-44
2023/02/07 07:04:06;;;;;;;134.98;27.73;;;;;;;0.39;100.00;103990.84;5024565;28;20045;-44
2023/02/07 07:06:32;;;;;;;99.75;28.58;;;;;;;0.47;100.00;103999.47;5025262;28;20189;-43
2023/02/07 07:08:57;;;;;;;100.05;29.40;;;;;;;0.42;100.00;104006.66;5024777;28;20021;-43
2023/02/07 07:11:22;;;;;;;173.35;31.35;;;;;;;0.40;100.00;103996.13;5024355;28;20146;-43
2023/02/07 07:13:48;;;;;;;76.63;27.50;;;;;;;0.43;100.00;104008.41;5023367;28;20061;-43
2023/02/07 07:16:13;;;;;;;174.57;32.05;;;;;;;0.18;100.00;103998.41;5025621;28;20041;-43
2023/02/07 07:18:39;;;;;;;116.38;31.63;;;;;;;0.28;100.00;104003.47;5027089;28;20265;-44
2023/02/07 07:21:05;;;;;;;130.98;31.33;;;;;;;0.29;100.00;103999.91;5027234;28;20033;-43
2023/02/07 07:23:30;;;;;;;117.60;30.45;;;;;;;0.33;100.00;104014.84;5027667;28;20499;-44
2023/02/07 07:25:55;;;;;;;123.88;29.58;;;;;;;0.32;100.00;104021.06;5026333;28;20041;-44
2023/02/07 07:28:21;;;;;;;133.68;29.33;;;;;;;0.13;100.00;104017.94;5026791;28;20061;-44
2023/02/07 07:30:46;;;;;;;131.23;29.27;;;;;;;0.12;100.00;104021.53;5023517;28;20045;-43
2023/02/07 07:33:11;;;;;;;95.28;30.33;;;;;;;0.15;100.00;104024.09;5026340;28;20084;-44
2023/02/07 07:35:37;;;;;;;160.90;34.17;;;;;;;0.19;100.00;104031.06;5024851;28;20385;-43
2023/02/07 07:38:03;;;;;;;123.00;29.25;;;;;;;0.15;100.00;104027.59;5024768;28;20030;-42
2023/02/07 07:40:28;;;;;;;194.40;30.92;;;;;;;0.09;100.00;104034.84;5027297;28;20485;-43
2023/02/07 07:42:54;;;;;;;125.57;31.20;;;;;;;0.13;100.00;104032.09;5024955;28;20083;-45
2023/02/07 07:45:19;;;;;;;201.57;32.17;;;;;;;0.25;100.00;104035.34;5024525;28;20033;-42
2023/02/07 07:47:45;;;;;;;213.63;32.10;;;;;;;0.27;100.00;104038.84;5027890;28;20460;-42
2023/02/07 07:50:10;;;;;;;106.03;29.67;;;;;;;0.22;100.00;104036.28;5028008;28;20104;-42
2023/02/07 07:52:35;;;;;;;112.90;30.48;;;;;;;0.15;100.00;104048.78;5025532;28;20113;-42
2023/02/07 07:55:01;;;;;;;115.57;31.77;;;;;;;0.19;100.00;104042.53;5026581;28;20061;-43
2023/02/07 07:57:27;;;;;;;122.75;31.90;;;;;;;0.38;100.00;104052.69;5029335;28;20022;-43
2023/02/07 07:59:56;;;;;;;123.10;34.15;;;;;;;0.48;100.00;104048.91;5025663;28;20064;-42
2023/02/07 08:02:23;;;;;;;149.20;32.28;;;;;;;0.45;100.00;104046.34;5024208;28;20393;-43
2023/02/07 08:04:48;;;;;;;253.57;32.40;;;;;;;0.48;100.00;104043.63;5042177;28;20033;-43
2023/02/07 08:07:14;;;;;;;192.15;32.45;;;;;;;0.31;100.00;104040.50;5024663;28;20478;-43
2023/02/07 08:09:39;;;;;;;117.10;30.98;;;;;;;0.39;100.00;104036.75;5027379;28;20501;-42
2023/02/07 08:12:05;;;;;;;110.57;29.67;;;;;;;0.41;100.00;104036.72;5022840;28;20366;-42
2023/02/07 08:14:30;;;;;;;125.93;30.23;;;;;;;0.53;100.00;104047.03;5026770;28;20017;-44
2023/02/07 08:16:55;;;;;;;98.10;30.05;;;;;;;0.42;100.00;104054.34;5028530;28;20034;-42
2023/02/07 08:19:21;;;;;;;178.82;32.03;;;;;;;0.27;100.00;104044.16;5025942;28;20065;-43
2023/02/07 08:21:46;;;;;;;236.63;31.83;;;;;;;0.11;100.00;104038.31;5025084;28;20041;-41
2023/02/07 08:24:11;;;;;;;287.10;31.92;;;;;;;-0.04;100.00;104042.19;5026599;28;20060;-42
2023/02/07 08:26:37;;;;;;;229.07;29.88;;;;;;;-0.11;100.00;104048.50;5023622;28;20110;-42
2023/02/07 08:29:02;;;;;;;328.35;30.55;;;;;;;-0.15;100.00;104044.22;5026857;28;20096;-42
2023/02/07 08:31:28;;;;;;;320.40;33.25;;;;;;;-0.19;100.00;104050.47;5025065;28;20087;-42
2023/02/07 08:33:53;;;;;;;432.30;36.08;;;;;;;-0.13;100.00;104040.63;5023081;28;20069;-41
2023/02/07 08:36:19;;;;;;;87.22;29.40;;;;;;;0.01;100.00;104042.09;5026020;28;20060;-42
2023/02/07 08:38:44;;;;;;;137.63;34.47;;;;;;;0.16;100.00;104034.66;5025263;28;20053;-42
2023/02/07 08:41:09;;;;;;;113.40;31.00;;;;;;;0.30;100.00;104036.97;5023652;28;20053;-42
2023/02/07 08:43:36;;;;;;;143.95;30.90;;;;;;;0.34;100.00;104051.00;5024982;28;20053;-43
2023/02/07 08:46:04;;;;;;;96.93;30.13;;;;;;;0.36;100.00;104043.91;5022018;28;20469;-43
2023/02/07 08:48:29;;;;;;;155.55;34.10;;;;;;;0.33;100.00;104039.56;5023593;28;20029;-41
2023/02/07 08:50:54;;;;;;;231.95;30.67;;;;;;;0.43;100.00;104045.50;5026353;28;20038;-45
2023/02/07 08:53:20;;;;;;;250.60;30.60;;;;;;;0.13;100.00;104040.03;5025653;28;20041;-42
2023/02/07 08:55:45;;;;;;;93.95;29.52;;;;;;;0.33;100.00;104046.63;5025207;28;20036;-43
2023/02/07 08:58:10;;;;;;;91.95;29.55;;;;;;;0.38;100.00;104047.41;5021805;28;20113;-42
2023/02/07 09:00:36;;;;;;;150.50;33.55;;;;;;;0.54;100.00;104043.47;5023983;28;20431;-41
2023/02/07 09:03:02;;;;;;;166.05;28.63;;;;;;;0.44;100.00;104048.09;5023396;28;20037;-42
2023/02/07 09:05:31;;;;;;;177.52;30.42;;;;;;;0.27;100.00;104054.75;5023628;28;20457;-42
2023/02/07 09:07:57;;;;;;;239.18;30.35;;;;;;;-0.06;100.00;104046.63;5023462;28;20108;-42
2023/02/07 09:10:23;;;;;;;141.05;31.05;;;;;;;0.01;100.00;104042.09;5023490;28;21224;-43
2023/02/07 09:12:48;;;;;;;187.68;30.17;;;;;;;0.02;100.00;104039.38;5024872;28;20061;-42
2023/02/07 09:15:13;;;;;;;78.00;28.63;;;;;;;-0.01;100.00;104036.81;5025590;28;20463;-44
2023/02/07 09:17:39;;;;;;;198.02;31.92;;;;;;;-0.04;100.00;104040.41;5024901;28;20035;-41
2023/02/07 09:20:05;;;;;;;74.40;26.90;;;;;;;0.16;100.00;104041.75;5022835;28;20293;-43
2023/02/07 09:22:30;;;;;;;182.27;29.63;;;;;;;0.44;100.00;104047.25;5022344;28;20472;-43
2023/02/07 09:24:56;;;;;;;94.00;28.60;;;;;;;0.44;100.00;104047.25;5025159;28;20022;-44
2023/02/07 09:27:21;;;;;;;69.45;27.70;;;;;;;0.64;100.00;104042.31;5025355;28;20033;-42
2023/02/07 09:29:47;;;;;;;91.60;29.30;;;;;;;0.82;100.00;104048.09;5025996;28;20037;-43
2023/02/07 09:32:12;;;;;;;78.03;28.15;;;;;;;0.92;100.00;104049.56;5023622;28;20038;-41
2023/02/07 09:34:37;;;;;;;81.13;29.70;;;;;;;0.98;100.00;104037.94;5026497;28;20425;-41
2023/02/07 09:37:03;;;;;;;94.68;29.95;;;;;;;1.00;100.00;104044.94;5025065;28;20026;-42
2023/02/07 09:39:28;;;;;;;83.15;30.10;;;;;;;1.11;100.00;104036.69;5026988;28;20076;-42
2023/02/07 09:42:12;;;;;;;102.80;29.02;;;;;;;1.08;100.00;104029.69;5028941;28;20036;-42
2023/02/07 09:44:43;;;;;;;81.25;30.35;;;;;;;1.20;100.00;104022.31;5024927;28;20021;-42
2023/02/07 09:47:14;;;;;;;120.10;29.60;;;;;;;1.16;100.00;104031.25;5021149;28;20439;-42
2023/02/07 09:50:03;;;;;;;112.53;30.90;;;;;;;1.07;100.00;104012.00;5023428;28;20060;-42
2023/02/07 09:52:41;;;;;;;100.60;31.63;;;;;;;1.29;100.00;104011.41;5022522;28;20025;-41
2023/02/07 09:55:18;;;;;;;97.25;30.73;;;;;;;1.13;100.00;104021.59;5022767;28;20032;-42
2023/02/07 09:57:46;;;;;;;87.75;29.65;;;;;;;1.16;100.00;104010.91;5023821;28;20421;-42
2023/02/07 10:00:19;;;;;;;82.25;29.73;;;;;;;1.19;100.00;104005.53;5023013;28;20500;-42
2023/02/07 10:02:56;;;;;;;82.05;30.17;;;;;;;1.46;100.00;104014.47;5021614;28;20049;-42
2023/02/07 10:05:29;;;;;;;90.38;31.38;;;;;;;1.60;100.00;104005.22;5024356;28;20041;-43
2023/02/07 10:07:54;;;;;;;93.78;31.77;;;;;;;1.81;100.00;104009.88;5025219;28;20163;-43
2023/02/07 10:10:29;;;;;;;79.80;30.45;;;;;;;2.15;100.00;104009.69;5025331;28;20108;-41
2023/02/07 10:12:54;;;;;;;86.05;28.17;;;;;;;1.95;100.00;104002.38;5025439;28;20033;-44
2023/02/07 10:15:43;;;;;;;82.43;29.10;;;;;;;2.11;100.00;103991.25;5025540;28;20060;-42
2023/02/07 10:18:35;;;;;;;83.32;29.88;;;;;;;2.37;100.00;103993.03;5024928;28;20053;-43
2023/02/07 10:21:22;;;;;;;87.78;30.75;;;;;;;2.68;100.00;103995.53;5023388;28;20041;-44
2023/02/07 10:24:03;;;;;;;77.60;29.60;;;;;;;3.08;100.00;104002.09;5022972;28;20052;-43
2023/02/07 10:26:55;;;;;;;69.45;28.48;;;;;;;3.48;100.00;104003.31;5023513;28;20018;-43
2023/02/07 10:29:29;;;;;;;60.40;26.92;;;;;;;4.70;100.00;104009.97;5023910;28;20053;-43
2023/02/07 10:31:58;;;;;;;66.18;26.13;;;;;;;5.36;100.00;103994.56;5024049;28;20069;-44
2023/02/07 10:34:29;;;;;;;61.15;25.33;;;;;;;5.14;100.00;103988.47;5019990;28;20041;-45
2023/02/07 10:36:56;;;;;;;58.30;24.48;;;;;;;4.54;100.00;103994.59;5021847;28;20040;-44
2023/02/07 10:39:26;;;;;;;60.63;24.23;;;;;;;4.25;100.00;103992.31;5027601;28;20439;-43
2023/02/07 10:41:54;;;;;;;53.00;22.45;;;;;;;4.27;100.00;103985.97;5027120;28;20056;-43
2023/02/07 10:44:20;;;;;;;53.05;21.77;;;;;;;4.83;100.00;103996.03;5027194;28;20047;-44
2023/02/07 10:46:50;;;;;;;52.47;22.08;;;;;;;5.47;100.00;103988.72;5025595;28;20042;-45
2023/02/07 10:49:19;;;;;;;51.65;21.27;;;;;;;6.57;100.00;103990.53;5026001;28;20392;-43
2023/02/07 10:51:45;;;;;;;47.58;20.83;;;;;;;7.16;100.00;103988.34;5030387;28;20072;-44
2023/02/07 10:54:12;;;;;;;51.30;20.17;;;;;;;7.32;100.00;103983.00;5027295;28;20033;-42
2023/02/07 10:56:49;;;;;;;48.15;20.80;;;;;;;7.09;100.00;103992.31;5026323;28;20029;-44
2023/02/07 10:59:44;;;;;;;53.00;21.40;;;;;;;7.88;100.00;103990.59;5025301;28;20199;-42
2023/02/07 11:02:31;;;;;;;52.50;22.40;;;;;;;8.32;100.00;103987.16;5024935;28;20035;-44
2023/02/07 11:05:01;;;;;;;49.90;19.63;;;;;;;8.79;100.00;103998.72;5027255;28;20324;-42
2023/02/07 11:07:26;;;;;;;44.08;20.70;;;;;;;8.81;100.00;103991.44;5028085;28;20082;-43
2023/02/07 11:10:19;;;;;;;46.65;20.27;;;;;;;8.30;100.00;103985.53;5007234;28;20064;-42
2023/02/07 11:12:46;;;;;;;52.67;19.98;;;;;;;8.51;98.27;103989.66;5027471;28;20045;-42
2023/02/07 11:15:17;;;;;;;48.75;18.02;;;;;;;8.13;93.15;103983.81;5024412;28;20112;-43